sensor_id;sensor_type;location;lat;lon;timestamp;P1;durP1;ratioP1;P2;durP2;ratioP2
61200;SDS011;47065;52.898;6.992;2023-02-22T00:00:39;78.50;;;31.05;;
61200;SDS011;47065;52.898;6.992;2023-02-22T00:03:16;93.57;;;30.83;;
61200;SDS011;47065;52.898;6.992;2023-02-22T00:05:50;89.97;;;33.72;;
61200;SDS011;47065;52.898;6.992;2023-02-22T00:08:19;90.28;;;31.80;;
61200;SDS011;47065;52.898;6.992;2023-02-22T00:10:48;103.43;;;32.92;;
61200;SDS011;47065;52.898;6.992;2023-02-22T00:13:15;106.65;;;35.53;;
61200;SDS011;47065;52.898;6.992;2023-02-22T00:15:43;95.18;;;33.78;;
61200;SDS011;47065;52.898;6.992;2023-02-22T00:18:10;105.75;;;36.70;;
61200;SDS011;47065;52.898;6.992;2023-02-22T00:20:38;112.57;;;37.88;;
61200;SDS011;47065;52.898;6.992;2023-02-22T00:23:05;108.15;;;38.72;;
61200;SDS011;47065;52.898;6.992;2023-02-22T00:25:33;120.55;;;38.38;;
61200;SDS011;47065;52.898;6.992;2023-02-22T00:27:59;101.88;;;35.75;;
61200;SDS011;47065;52.898;6.992;2023-02-22T00:30:26;120.32;;;39.13;;
61200;SDS011;47065;52.898;6.992;2023-02-22T00:32:54;122.72;;;37.90;;
61200;SDS011;47065;52.898;6.992;2023-02-22T00:35:21;112.32;;;37.90;;
61200;SDS011;47065;52.898;6.992;2023-02-22T00:37:52;120.55;;;39.17;;
61200;SDS011;47065;52.898;6.992;2023-02-22T00:40:27;125.22;;;39.70;;
61200;SDS011;47065;52.898;6.992;2023-02-22T00:42:55;117.85;;;39.05;;
61200;SDS011;47065;52.898;6.992;2023-02-22T00:45:22;120.60;;;38.25;;
61200;SDS011;47065;52.898;6.992;2023-02-22T00:47:50;102.18;;;36.92;;
61200;SDS011;47065;52.898;6.992;2023-02-22T00:50:18;122.25;;;39.65;;
61200;SDS011;47065;52.898;6.992;2023-02-22T00:52:45;102.45;;;36.78;;
61200;SDS011;47065;52.898;6.992;2023-02-22T00:55:19;106.57;;;34.70;;
61200;SDS011;47065;52.898;6.992;2023-02-22T00:57:46;103.47;;;36.22;;
61200;SDS011;47065;52.898;6.992;2023-02-22T01:00:15;104.10;;;35.80;;
61200;SDS011;47065;52.898;6.992;2023-02-22T01:02:43;108.15;;;35.78;;
61200;SDS011;47065;52.898;6.992;2023-02-22T01:05:11;109.55;;;34.83;;
61200;SDS011;47065;52.898;6.992;2023-02-22T01:07:38;101.65;;;34.70;;
61200;SDS011;47065;52.898;6.992;2023-02-22T01:10:05;100.75;;;35.85;;
61200;SDS011;47065;52.898;6.992;2023-02-22T01:12:32;85.22;;;33.10;;
61200;SDS011;47065;52.898;6.992;2023-02-22T01:14:59;104.93;;;35.58;;
61200;SDS011;47065;52.898;6.992;2023-02-22T01:17:27;118.63;;;35.63;;
61200;SDS011;47065;52.898;6.992;2023-02-22T01:19:54;116.28;;;36.25;;
61200;SDS011;47065;52.898;6.992;2023-02-22T01:22:19;110.07;;;36.22;;
61200;SDS011;47065;52.898;6.992;2023-02-22T01:24:46;104.47;;;34.83;;
61200;SDS011;47065;52.898;6.992;2023-02-22T01:27:12;102.00;;;32.58;;
61200;SDS011;47065;52.898;6.992;2023-02-22T01:29:38;116.95;;;36.88;;
61200;SDS011;47065;52.898;6.992;2023-02-22T01:32:04;99.05;;;35.50;;
61200;SDS011;47065;52.898;6.992;2023-02-22T01:34:30;108.10;;;35.20;;
61200;SDS011;47065;52.898;6.992;2023-02-22T01:36:57;107.13;;;33.47;;
61200;SDS011;47065;52.898;6.992;2023-02-22T01:39:26;98.25;;;33.92;;
61200;SDS011;47065;52.898;6.992;2023-02-22T01:41:52;95.00;;;32.20;;
61200;SDS011;47065;52.898;6.992;2023-02-22T01:44:19;90.53;;;30.60;;
61200;SDS011;47065;52.898;6.992;2023-02-22T01:46:57;95.25;;;33.17;;
61200;SDS011;47065;52.898;6.992;2023-02-22T01:49:29;99.00;;;33.92;;
61200;SDS011;47065;52.898;6.992;2023-02-22T01:52:09;93.97;;;32.88;;
61200;SDS011;47065;52.898;6.992;2023-02-22T01:54:50;107.18;;;34.08;;
61200;SDS011;47065;52.898;6.992;2023-02-22T01:57:22;98.28;;;31.45;;
61200;SDS011;47065;52.898;6.992;2023-02-22T01:59:52;93.50;;;34.92;;
61200;SDS011;47065;52.898;6.992;2023-02-22T02:02:19;116.78;;;35.65;;
61200;SDS011;47065;52.898;6.992;2023-02-22T02:04:46;109.30;;;35.20;;
61200;SDS011;47065;52.898;6.992;2023-02-22T02:07:13;111.63;;;36.40;;
61200;SDS011;47065;52.898;6.992;2023-02-22T02:09:57;102.40;;;34.20;;
61200;SDS011;47065;52.898;6.992;2023-02-22T02:12:24;113.70;;;34.17;;
61200;SDS011;47065;52.898;6.992;2023-02-22T02:15:10;104.25;;;34.78;;
61200;SDS011;47065;52.898;6.992;2023-02-22T02:17:53;100.35;;;34.22;;
61200;SDS011;47065;52.898;6.992;2023-02-22T02:20:23;107.00;;;32.70;;
61200;SDS011;47065;52.898;6.992;2023-02-22T02:28:59;103.82;;;35.33;;
61200;SDS011;47065;52.898;6.992;2023-02-22T02:48:40;101.80;;;35.20;;
61200;SDS011;47065;52.898;6.992;2023-02-22T02:51:10;114.32;;;37.50;;
61200;SDS011;47065;52.898;6.992;2023-02-22T02:53:39;104.45;;;34.03;;
61200;SDS011;47065;52.898;6.992;2023-02-22T02:56:10;107.82;;;37.30;;
61200;SDS011;47065;52.898;6.992;2023-02-22T02:58:46;114.05;;;36.25;;
61200;SDS011;47065;52.898;6.992;2023-02-22T03:01:16;108.70;;;34.80;;
61200;SDS011;47065;52.898;6.992;2023-02-22T03:04:08;97.85;;;33.70;;
61200;SDS011;47065;52.898;6.992;2023-02-22T03:09:45;105.18;;;36.95;;
61200;SDS011;47065;52.898;6.992;2023-02-22T03:12:40;102.38;;;37.90;;
61200;SDS011;47065;52.898;6.992;2023-02-22T03:15:37;107.55;;;35.28;;
61200;SDS011;47065;52.898;6.992;2023-02-22T03:18:19;113.90;;;36.65;;
61200;SDS011;47065;52.898;6.992;2023-02-22T03:20:58;104.40;;;38.53;;
61200;SDS011;47065;52.898;6.992;2023-02-22T03:26:12;107.22;;;33.92;;
61200;SDS011;47065;52.898;6.992;2023-02-22T03:28:44;92.80;;;36.20;;
61200;SDS011;47065;52.898;6.992;2023-02-22T03:31:17;100.60;;;35.05;;
61200;SDS011;47065;52.898;6.992;2023-02-22T03:33:55;106.15;;;37.72;;
61200;SDS011;47065;52.898;6.992;2023-02-22T03:36:36;103.00;;;35.85;;
61200;SDS011;47065;52.898;6.992;2023-02-22T03:39:06;103.32;;;37.50;;
61200;SDS011;47065;52.898;6.992;2023-02-22T03:41:36;100.20;;;36.70;;
61200;SDS011;47065;52.898;6.992;2023-02-22T03:44:05;103.78;;;37.08;;
61200;SDS011;47065;52.898;6.992;2023-02-22T03:46:36;95.50;;;34.47;;
61200;SDS011;47065;52.898;6.992;2023-02-22T03:49:13;97.47;;;34.60;;
61200;SDS011;47065;52.898;6.992;2023-02-22T03:51:53;103.28;;;36.50;;
61200;SDS011;47065;52.898;6.992;2023-02-22T03:54:19;99.43;;;35.42;;
61200;SDS011;47065;52.898;6.992;2023-02-22T03:56:48;98.13;;;37.22;;
61200;SDS011;47065;52.898;6.992;2023-02-22T03:59:19;100.72;;;37.00;;
61200;SDS011;47065;52.898;6.992;2023-02-22T04:01:51;104.07;;;35.17;;
61200;SDS011;47065;52.898;6.992;2023-02-22T04:04:18;113.55;;;40.63;;
61200;SDS011;47065;52.898;6.992;2023-02-22T04:06:45;122.60;;;40.53;;
61200;SDS011;47065;52.898;6.992;2023-02-22T04:09:12;112.07;;;38.63;;
61200;SDS011;47065;52.898;6.992;2023-02-22T04:11:38;109.75;;;38.00;;
61200;SDS011;47065;52.898;6.992;2023-02-22T04:14:04;115.70;;;40.95;;
61200;SDS011;47065;52.898;6.992;2023-02-22T04:16:29;119.70;;;40.13;;
61200;SDS011;47065;52.898;6.992;2023-02-22T04:18:55;115.68;;;40.55;;
61200;SDS011;47065;52.898;6.992;2023-02-22T04:21:21;129.13;;;41.95;;
61200;SDS011;47065;52.898;6.992;2023-02-22T04:23:46;111.85;;;39.90;;
61200;SDS011;47065;52.898;6.992;2023-02-22T04:26:12;130.10;;;43.15;;
61200;SDS011;47065;52.898;6.992;2023-02-22T04:28:38;110.82;;;41.33;;
61200;SDS011;47065;52.898;6.992;2023-02-22T04:31:03;119.35;;;43.08;;
61200;SDS011;47065;52.898;6.992;2023-02-22T04:33:29;112.60;;;40.63;;
61200;SDS011;47065;52.898;6.992;2023-02-22T04:35:55;125.40;;;44.05;;
61200;SDS011;47065;52.898;6.992;2023-02-22T04:38:22;108.75;;;40.55;;
61200;SDS011;47065;52.898;6.992;2023-02-22T04:40:50;118.50;;;43.03;;
61200;SDS011;47065;52.898;6.992;2023-02-22T04:43:16;109.35;;;39.90;;
61200;SDS011;47065;52.898;6.992;2023-02-22T04:45:42;107.65;;;39.60;;
61200;SDS011;47065;52.898;6.992;2023-02-22T04:48:08;104.07;;;40.58;;
61200;SDS011;47065;52.898;6.992;2023-02-22T04:50:34;104.38;;;39.70;;
61200;SDS011;47065;52.898;6.992;2023-02-22T04:53:00;112.63;;;40.83;;
61200;SDS011;47065;52.898;6.992;2023-02-22T04:55:25;121.55;;;42.17;;
61200;SDS011;47065;52.898;6.992;2023-02-22T04:57:52;122.32;;;41.03;;
61200;SDS011;47065;52.898;6.992;2023-02-22T05:00:18;114.82;;;40.22;;
61200;SDS011;47065;52.898;6.992;2023-02-22T05:02:46;115.57;;;40.58;;
61200;SDS011;47065;52.898;6.992;2023-02-22T05:05:17;108.47;;;39.80;;
61200;SDS011;47065;52.898;6.992;2023-02-22T05:07:45;108.97;;;40.22;;
61200;SDS011;47065;52.898;6.992;2023-02-22T05:10:12;114.55;;;43.40;;
61200;SDS011;47065;52.898;6.992;2023-02-22T05:12:37;108.97;;;43.75;;
61200;SDS011;47065;52.898;6.992;2023-02-22T05:15:04;117.47;;;45.38;;
61200;SDS011;47065;52.898;6.992;2023-02-22T05:17:30;119.95;;;46.28;;
61200;SDS011;47065;52.898;6.992;2023-02-22T05:19:56;115.95;;;44.90;;
61200;SDS011;47065;52.898;6.992;2023-02-22T05:22:21;106.93;;;43.75;;
61200;SDS011;47065;52.898;6.992;2023-02-22T05:24:48;112.20;;;47.55;;
61200;SDS011;47065;52.898;6.992;2023-02-22T05:27:16;101.05;;;43.92;;
61200;SDS011;47065;52.898;6.992;2023-02-22T05:29:42;113.50;;;44.67;;
61200;SDS011;47065;52.898;6.992;2023-02-22T05:32:08;106.68;;;45.40;;
61200;SDS011;47065;52.898;6.992;2023-02-22T05:34:36;105.85;;;42.80;;
61200;SDS011;47065;52.898;6.992;2023-02-22T05:37:02;101.68;;;44.67;;
61200;SDS011;47065;52.898;6.992;2023-02-22T05:39:28;107.18;;;44.05;;
61200;SDS011;47065;52.898;6.992;2023-02-22T05:41:54;107.88;;;43.30;;
61200;SDS011;47065;52.898;6.992;2023-02-22T05:44:19;98.30;;;42.40;;
61200;SDS011;47065;52.898;6.992;2023-02-22T05:46:45;101.38;;;41.53;;
61200;SDS011;47065;52.898;6.992;2023-02-22T05:49:10;102.90;;;42.90;;
61200;SDS011;47065;52.898;6.992;2023-02-22T05:51:36;106.30;;;41.85;;
61200;SDS011;47065;52.898;6.992;2023-02-22T05:54:02;101.95;;;42.78;;
61200;SDS011;47065;52.898;6.992;2023-02-22T05:56:27;98.00;;;41.53;;
61200;SDS011;47065;52.898;6.992;2023-02-22T05:58:54;110.35;;;43.28;;
61200;SDS011;47065;52.898;6.992;2023-02-22T06:01:21;107.43;;;42.88;;
61200;SDS011;47065;52.898;6.992;2023-02-22T06:03:47;103.65;;;41.53;;
61200;SDS011;47065;52.898;6.992;2023-02-22T06:06:14;103.53;;;41.53;;
61200;SDS011;47065;52.898;6.992;2023-02-22T06:08:40;117.10;;;46.50;;
61200;SDS011;47065;52.898;6.992;2023-02-22T06:11:06;117.55;;;45.08;;
61200;SDS011;47065;52.898;6.992;2023-02-22T06:13:33;111.97;;;43.40;;
61200;SDS011;47065;52.898;6.992;2023-02-22T06:16:00;108.07;;;40.95;;
61200;SDS011;47065;52.898;6.992;2023-02-22T06:18:26;106.30;;;44.22;;
61200;SDS011;47065;52.898;6.992;2023-02-22T06:20:54;102.10;;;41.97;;
61200;SDS011;47065;52.898;6.992;2023-02-22T06:23:20;98.63;;;41.88;;
61200;SDS011;47065;52.898;6.992;2023-02-22T06:25:46;106.53;;;42.08;;
61200;SDS011;47065;52.898;6.992;2023-02-22T06:28:12;96.97;;;42.38;;
61200;SDS011;47065;52.898;6.992;2023-02-22T06:30:39;117.25;;;45.65;;
61200;SDS011;47065;52.898;6.992;2023-02-22T06:33:06;109.63;;;45.63;;
61200;SDS011;47065;52.898;6.992;2023-02-22T06:35:33;108.10;;;43.53;;
61200;SDS011;47065;52.898;6.992;2023-02-22T06:37:58;106.45;;;45.60;;
61200;SDS011;47065;52.898;6.992;2023-02-22T06:40:24;121.78;;;49.30;;
61200;SDS011;47065;52.898;6.992;2023-02-22T06:42:53;114.38;;;45.88;;
61200;SDS011;47065;52.898;6.992;2023-02-22T06:45:19;111.93;;;47.88;;
61200;SDS011;47065;52.898;6.992;2023-02-22T06:47:45;118.18;;;47.70;;
61200;SDS011;47065;52.898;6.992;2023-02-22T06:50:21;118.88;;;47.65;;
61200;SDS011;47065;52.898;6.992;2023-02-22T06:52:49;113.70;;;46.03;;
61200;SDS011;47065;52.898;6.992;2023-02-22T06:55:19;111.45;;;46.65;;
61200;SDS011;47065;52.898;6.992;2023-02-22T06:57:46;115.20;;;44.83;;
61200;SDS011;47065;52.898;6.992;2023-02-22T07:00:13;111.07;;;46.67;;
61200;SDS011;47065;52.898;6.992;2023-02-22T07:02:43;115.45;;;43.75;;
61200;SDS011;47065;52.898;6.992;2023-02-22T07:05:09;110.07;;;46.58;;
61200;SDS011;47065;52.898;6.992;2023-02-22T07:07:37;122.20;;;43.97;;
61200;SDS011;47065;52.898;6.992;2023-02-22T07:10:07;107.70;;;42.42;;
61200;SDS011;47065;52.898;6.992;2023-02-22T07:12:39;100.55;;;41.83;;
61200;SDS011;47065;52.898;6.992;2023-02-22T07:15:05;115.85;;;44.80;;
61200;SDS011;47065;52.898;6.992;2023-02-22T07:17:31;111.35;;;42.42;;
61200;SDS011;47065;52.898;6.992;2023-02-22T07:19:57;109.55;;;42.42;;
61200;SDS011;47065;52.898;6.992;2023-02-22T07:22:22;106.18;;;42.78;;
61200;SDS011;47065;52.898;6.992;2023-02-22T07:24:48;108.18;;;40.45;;
61200;SDS011;47065;52.898;6.992;2023-02-22T07:27:13;102.63;;;41.92;;
61200;SDS011;47065;52.898;6.992;2023-02-22T07:29:41;111.60;;;43.40;;
61200;SDS011;47065;52.898;6.992;2023-02-22T07:32:07;103.35;;;41.78;;
61200;SDS011;47065;52.898;6.992;2023-02-22T07:34:32;103.97;;;42.17;;
61200;SDS011;47065;52.898;6.992;2023-02-22T07:36:58;114.47;;;41.47;;
61200;SDS011;47065;52.898;6.992;2023-02-22T07:39:23;108.72;;;44.47;;
61200;SDS011;47065;52.898;6.992;2023-02-22T07:41:49;102.75;;;42.20;;
61200;SDS011;47065;52.898;6.992;2023-02-22T07:44:15;106.30;;;44.53;;
61200;SDS011;47065;52.898;6.992;2023-02-22T07:46:41;115.72;;;43.97;;
61200;SDS011;47065;52.898;6.992;2023-02-22T07:49:12;114.78;;;45.28;;
61200;SDS011;47065;52.898;6.992;2023-02-22T07:51:38;108.90;;;44.30;;
61200;SDS011;47065;52.898;6.992;2023-02-22T07:54:03;104.72;;;45.50;;
61200;SDS011;47065;52.898;6.992;2023-02-22T07:56:29;106.72;;;44.65;;
61200;SDS011;47065;52.898;6.992;2023-02-22T07:58:55;112.68;;;41.75;;
61200;SDS011;47065;52.898;6.992;2023-02-22T08:01:20;100.30;;;42.63;;
61200;SDS011;47065;52.898;6.992;2023-02-22T08:03:46;111.47;;;41.67;;
61200;SDS011;47065;52.898;6.992;2023-02-22T08:06:12;108.53;;;42.13;;
61200;SDS011;47065;52.898;6.992;2023-02-22T08:08:37;99.60;;;41.50;;
61200;SDS011;47065;52.898;6.992;2023-02-22T08:11:04;101.03;;;39.97;;
61200;SDS011;47065;52.898;6.992;2023-02-22T08:15:57;95.22;;;37.38;;
61200;SDS011;47065;52.898;6.992;2023-02-22T08:18:23;96.88;;;39.08;;
61200;SDS011;47065;52.898;6.992;2023-02-22T08:20:50;90.60;;;37.83;;
61200;SDS011;47065;52.898;6.992;2023-02-22T08:23:17;93.32;;;40.40;;
61200;SDS011;47065;52.898;6.992;2023-02-22T08:25:44;94.65;;;39.13;;
61200;SDS011;47065;52.898;6.992;2023-02-22T08:28:11;90.90;;;37.30;;
61200;SDS011;47065;52.898;6.992;2023-02-22T08:30:39;92.13;;;39.25;;
61200;SDS011;47065;52.898;6.992;2023-02-22T08:33:07;92.60;;;35.28;;
61200;SDS011;47065;52.898;6.992;2023-02-22T08:35:35;88.22;;;33.95;;
61200;SDS011;47065;52.898;6.992;2023-02-22T08:38:02;81.57;;;34.05;;
61200;SDS011;47065;52.898;6.992;2023-02-22T08:40:30;83.55;;;37.35;;
61200;SDS011;47065;52.898;6.992;2023-02-22T08:42:58;90.75;;;35.10;;
61200;SDS011;47065;52.898;6.992;2023-02-22T08:45:23;90.72;;;35.10;;
61200;SDS011;47065;52.898;6.992;2023-02-22T08:47:49;96.03;;;35.25;;
61200;SDS011;47065;52.898;6.992;2023-02-22T08:50:22;89.85;;;34.90;;
61200;SDS011;47065;52.898;6.992;2023-02-22T08:52:53;100.97;;;37.92;;
61200;SDS011;47065;52.898;6.992;2023-02-22T08:55:23;104.38;;;37.00;;
61200;SDS011;47065;52.898;6.992;2023-02-22T08:57:50;103.13;;;38.13;;
61200;SDS011;47065;52.898;6.992;2023-02-22T09:00:17;102.32;;;37.42;;
61200;SDS011;47065;52.898;6.992;2023-02-22T09:02:43;90.05;;;36.35;;
61200;SDS011;47065;52.898;6.992;2023-02-22T09:05:09;85.35;;;33.13;;
61200;SDS011;47065;52.898;6.992;2023-02-22T09:07:35;80.88;;;31.30;;
61200;SDS011;47065;52.898;6.992;2023-02-22T09:10:00;74.65;;;30.45;;
61200;SDS011;47065;52.898;6.992;2023-02-22T09:12:26;76.30;;;31.05;;
61200;SDS011;47065;52.898;6.992;2023-02-22T09:14:52;73.97;;;29.02;;
61200;SDS011;47065;52.898;6.992;2023-02-22T09:17:17;83.50;;;29.58;;
61200;SDS011;47065;52.898;6.992;2023-02-22T09:19:43;82.13;;;31.77;;
61200;SDS011;47065;52.898;6.992;2023-02-22T09:22:09;80.32;;;32.60;;
61200;SDS011;47065;52.898;6.992;2023-02-22T09:24:35;88.50;;;33.22;;
61200;SDS011;47065;52.898;6.992;2023-02-22T09:27:01;79.82;;;33.53;;
61200;SDS011;47065;52.898;6.992;2023-02-22T09:29:28;89.70;;;32.65;;
61200;SDS011;47065;52.898;6.992;2023-02-22T09:31:55;87.88;;;35.20;;
61200;SDS011;47065;52.898;6.992;2023-02-22T09:34:22;92.05;;;32.97;;
61200;SDS011;47065;52.898;6.992;2023-02-22T09:36:53;92.10;;;34.85;;
61200;SDS011;47065;52.898;6.992;2023-02-22T09:39:21;93.50;;;34.67;;
61200;SDS011;47065;52.898;6.992;2023-02-22T09:42:07;108.13;;;40.35;;
61200;SDS011;47065;52.898;6.992;2023-02-22T09:47:34;94.82;;;37.80;;
61200;SDS011;47065;52.898;6.992;2023-02-22T09:50:23;104.93;;;37.75;;
61200;SDS011;47065;52.898;6.992;2023-02-22T09:52:54;112.05;;;38.33;;
61200;SDS011;47065;52.898;6.992;2023-02-22T09:58:37;106.05;;;38.65;;
61200;SDS011;47065;52.898;6.992;2023-02-22T10:09:52;111.60;;;39.95;;
61200;SDS011;47065;52.898;6.992;2023-02-22T10:20:30;106.30;;;36.45;;
61200;SDS011;47065;52.898;6.992;2023-02-22T10:25:51;109.50;;;39.08;;
61200;SDS011;47065;52.898;6.992;2023-02-22T10:28:36;107.50;;;38.05;;
61200;SDS011;47065;52.898;6.992;2023-02-22T10:31:08;100.47;;;38.00;;
61200;SDS011;47065;52.898;6.992;2023-02-22T10:33:46;118.53;;;42.22;;
61200;SDS011;47065;52.898;6.992;2023-02-22T10:36:16;108.03;;;40.97;;
61200;SDS011;47065;52.898;6.992;2023-02-22T10:38:47;123.40;;;41.85;;
61200;SDS011;47065;52.898;6.992;2023-02-22T10:41:27;128.07;;;42.40;;
61200;SDS011;47065;52.898;6.992;2023-02-22T10:43:56;111.10;;;39.90;;
61200;SDS011;47065;52.898;6.992;2023-02-22T10:46:22;120.82;;;41.13;;
61200;SDS011;47065;52.898;6.992;2023-02-22T10:48:51;100.18;;;37.20;;
61200;SDS011;47065;52.898;6.992;2023-02-22T10:51:20;83.57;;;32.85;;
61200;SDS011;47065;52.898;6.992;2023-02-22T10:53:52;93.72;;;32.63;;
61200;SDS011;47065;52.898;6.992;2023-02-22T10:56:48;94.43;;;34.00;;
61200;SDS011;47065;52.898;6.992;2023-02-22T10:59:26;94.50;;;36.20;;
61200;SDS011;47065;52.898;6.992;2023-02-22T11:02:19;101.80;;;34.90;;
61200;SDS011;47065;52.898;6.992;2023-02-22T11:04:51;108.60;;;36.25;;
61200;SDS011;47065;52.898;6.992;2023-02-22T11:07:23;106.93;;;39.10;;
61200;SDS011;47065;52.898;6.992;2023-02-22T11:09:55;98.72;;;37.60;;
61200;SDS011;47065;52.898;6.992;2023-02-22T11:12:30;95.38;;;36.85;;
61200;SDS011;47065;52.898;6.992;2023-02-22T11:18:00;106.43;;;40.80;;
61200;SDS011;47065;52.898;6.992;2023-02-22T11:20:30;107.70;;;43.33;;
61200;SDS011;47065;52.898;6.992;2023-02-22T11:23:02;100.32;;;40.55;;
61200;SDS011;47065;52.898;6.992;2023-02-22T11:25:36;100.60;;;41.35;;
61200;SDS011;47065;52.898;6.992;2023-02-22T11:28:46;100.25;;;38.47;;
61200;SDS011;47065;52.898;6.992;2023-02-22T11:31:13;89.60;;;41.30;;
61200;SDS011;47065;52.898;6.992;2023-02-22T11:33:52;88.18;;;36.70;;
61200;SDS011;47065;52.898;6.992;2023-02-22T11:36:30;95.88;;;43.28;;
61200;SDS011;47065;52.898;6.992;2023-02-22T11:39:01;93.47;;;39.35;;
61200;SDS011;47065;52.898;6.992;2023-02-22T11:41:30;99.72;;;38.65;;
61200;SDS011;47065;52.898;6.992;2023-02-22T11:46:45;98.55;;;38.85;;
61200;SDS011;47065;52.898;6.992;2023-02-22T11:49:12;87.03;;;36.70;;
61200;SDS011;47065;52.898;6.992;2023-02-22T11:52:15;88.40;;;38.67;;
61200;SDS011;47065;52.898;6.992;2023-02-22T12:05:39;73.88;;;34.45;;
61200;SDS011;47065;52.898;6.992;2023-02-22T12:11:34;70.75;;;32.53;;
61200;SDS011;47065;52.898;6.992;2023-02-22T12:14:19;76.70;;;36.45;;
61200;SDS011;47065;52.898;6.992;2023-02-22T12:19:50;73.25;;;33.90;;
61200;SDS011;47065;52.898;6.992;2023-02-22T12:22:38;72.55;;;34.08;;
61200;SDS011;47065;52.898;6.992;2023-02-22T12:27:46;82.07;;;33.60;;
61200;SDS011;47065;52.898;6.992;2023-02-22T12:30:23;77.88;;;36.13;;
61200;SDS011;47065;52.898;6.992;2023-02-22T12:33:02;74.65;;;35.83;;
61200;SDS011;47065;52.898;6.992;2023-02-22T12:35:36;82.10;;;39.10;;
61200;SDS011;47065;52.898;6.992;2023-02-22T12:40:57;80.03;;;36.30;;
61200;SDS011;47065;52.898;6.992;2023-02-22T12:43:36;76.65;;;35.15;;
61200;SDS011;47065;52.898;6.992;2023-02-22T12:49:07;80.15;;;37.60;;
61200;SDS011;47065;52.898;6.992;2023-02-22T12:54:25;82.10;;;39.30;;
61200;SDS011;47065;52.898;6.992;2023-02-22T12:59:48;75.90;;;38.28;;
61200;SDS011;47065;52.898;6.992;2023-02-22T13:04:46;69.65;;;35.38;;
61200;SDS011;47065;52.898;6.992;2023-02-22T13:07:35;73.07;;;37.85;;
61200;SDS011;47065;52.898;6.992;2023-02-22T13:10:34;75.80;;;36.85;;
61200;SDS011;47065;52.898;6.992;2023-02-22T13:15:56;71.53;;;36.55;;
61200;SDS011;47065;52.898;6.992;2023-02-22T13:24:23;70.82;;;33.38;;
61200;SDS011;47065;52.898;6.992;2023-02-22T13:27:09;71.32;;;35.05;;
61200;SDS011;47065;52.898;6.992;2023-02-22T13:29:43;67.05;;;33.05;;
61200;SDS011;47065;52.898;6.992;2023-02-22T13:32:22;63.75;;;33.42;;
61200;SDS011;47065;52.898;6.992;2023-02-22T13:35:08;62.08;;;32.40;;
61200;SDS011;47065;52.898;6.992;2023-02-22T13:41:08;62.80;;;30.60;;
61200;SDS011;47065;52.898;6.992;2023-02-22T13:52:16;53.22;;;29.95;;
61200;SDS011;47065;52.898;6.992;2023-02-22T13:54:48;58.80;;;29.45;;
61200;SDS011;47065;52.898;6.992;2023-02-22T14:03:05;51.45;;;26.95;;
61200;SDS011;47065;52.898;6.992;2023-02-22T14:08:51;46.45;;;27.88;;
61200;SDS011;47065;52.898;6.992;2023-02-22T14:10:55;48.40;;;27.23;;
61200;SDS011;47065;52.898;6.992;2023-02-22T14:13:25;53.35;;;29.02;;
61200;SDS011;47065;52.898;6.992;2023-02-22T14:18:24;51.38;;;27.20;;
61200;SDS011;47065;52.898;6.992;2023-02-22T14:21:27;54.83;;;28.83;;
61200;SDS011;47065;52.898;6.992;2023-02-22T14:23:49;51.42;;;29.05;;
61200;SDS011;47065;52.898;6.992;2023-02-22T14:26:36;46.90;;;27.10;;
61200;SDS011;47065;52.898;6.992;2023-02-22T14:34:18;39.13;;;22.48;;
61200;SDS011;47065;52.898;6.992;2023-02-22T14:36:47;35.10;;;21.30;;
61200;SDS011;47065;52.898;6.992;2023-02-22T14:50:11;40.97;;;22.23;;
61200;SDS011;47065;52.898;6.992;2023-02-22T14:52:47;37.97;;;21.48;;
61200;SDS011;47065;52.898;6.992;2023-02-22T14:55:25;37.67;;;21.98;;
61200;SDS011;47065;52.898;6.992;2023-02-22T14:58:01;39.00;;;22.48;;
61200;SDS011;47065;52.898;6.992;2023-02-22T15:00:40;34.35;;;20.85;;
61200;SDS011;47065;52.898;6.992;2023-02-22T15:03:32;35.83;;;20.35;;
61200;SDS011;47065;52.898;6.992;2023-02-22T15:08:39;36.70;;;23.17;;
61200;SDS011;47065;52.898;6.992;2023-02-22T15:11:18;42.00;;;22.13;;
61200;SDS011;47065;52.898;6.992;2023-02-22T15:13:50;41.17;;;21.55;;
61200;SDS011;47065;52.898;6.992;2023-02-22T15:16:18;35.28;;;21.45;;
61200;SDS011;47065;52.898;6.992;2023-02-22T15:18:46;34.38;;;20.58;;
61200;SDS011;47065;52.898;6.992;2023-02-22T15:21:16;36.10;;;20.27;;
61200;SDS011;47065;52.898;6.992;2023-02-22T15:26:24;33.83;;;19.52;;
61200;SDS011;47065;52.898;6.992;2023-02-22T15:29:12;34.10;;;20.80;;
61200;SDS011;47065;52.898;6.992;2023-02-22T15:31:40;32.58;;;20.35;;
61200;SDS011;47065;52.898;6.992;2023-02-22T15:36:39;33.85;;;21.30;;
61200;SDS011;47065;52.898;6.992;2023-02-22T15:44:44;37.83;;;20.92;;
61200;SDS011;47065;52.898;6.992;2023-02-22T15:47:16;37.70;;;21.42;;
61200;SDS011;47065;52.898;6.992;2023-02-22T15:53:17;38.58;;;22.08;;
61200;SDS011;47065;52.898;6.992;2023-02-22T15:55:53;37.63;;;20.77;;
61200;SDS011;47065;52.898;6.992;2023-02-22T15:58:22;38.38;;;20.13;;
61200;SDS011;47065;52.898;6.992;2023-02-22T16:01:03;33.45;;;20.52;;
61200;SDS011;47065;52.898;6.992;2023-02-22T16:03:36;32.25;;;19.67;;
61200;SDS011;47065;52.898;6.992;2023-02-22T16:06:09;34.30;;;18.33;;
61200;SDS011;47065;52.898;6.992;2023-02-22T16:08:52;37.72;;;20.48;;
61200;SDS011;47065;52.898;6.992;2023-02-22T16:11:41;35.17;;;20.30;;
61200;SDS011;47065;52.898;6.992;2023-02-22T16:17:35;39.60;;;21.23;;
61200;SDS011;47065;52.898;6.992;2023-02-22T16:22:42;37.25;;;22.15;;
61200;SDS011;47065;52.898;6.992;2023-02-22T16:32:45;40.65;;;21.25;;
61200;SDS011;47065;52.898;6.992;2023-02-22T16:35:14;36.40;;;21.70;;
61200;SDS011;47065;52.898;6.992;2023-02-22T16:37:47;34.42;;;20.92;;
61200;SDS011;47065;52.898;6.992;2023-02-22T16:40:24;42.13;;;20.95;;
61200;SDS011;47065;52.898;6.992;2023-02-22T16:42:56;36.10;;;20.00;;
61200;SDS011;47065;52.898;6.992;2023-02-22T16:45:23;39.17;;;23.08;;
61200;SDS011;47065;52.898;6.992;2023-02-22T16:47:49;34.13;;;20.83;;
61200;SDS011;47065;52.898;6.992;2023-02-22T16:50:17;37.47;;;20.50;;
61200;SDS011;47065;52.898;6.992;2023-02-22T16:52:43;36.10;;;19.77;;
61200;SDS011;47065;52.898;6.992;2023-02-22T16:55:10;35.20;;;19.70;;
61200;SDS011;47065;52.898;6.992;2023-02-22T16:57:38;38.08;;;21.52;;
61200;SDS011;47065;52.898;6.992;2023-02-22T17:00:06;38.30;;;21.38;;
61200;SDS011;47065;52.898;6.992;2023-02-22T17:02:37;41.05;;;21.95;;
61200;SDS011;47065;52.898;6.992;2023-02-22T17:05:03;36.55;;;20.80;;
61200;SDS011;47065;52.898;6.992;2023-02-22T17:07:29;38.10;;;21.25;;
61200;SDS011;47065;52.898;6.992;2023-02-22T17:09:56;40.42;;;23.45;;
61200;SDS011;47065;52.898;6.992;2023-02-22T17:12:22;39.17;;;21.30;;
61200;SDS011;47065;52.898;6.992;2023-02-22T17:14:49;39.10;;;22.85;;
61200;SDS011;47065;52.898;6.992;2023-02-22T17:17:15;39.33;;;20.55;;
61200;SDS011;47065;52.898;6.992;2023-02-22T17:19:42;37.50;;;21.70;;
61200;SDS011;47065;52.898;6.992;2023-02-22T17:22:18;42.75;;;22.70;;
61200;SDS011;47065;52.898;6.992;2023-02-22T17:24:44;41.55;;;22.40;;
61200;SDS011;47065;52.898;6.992;2023-02-22T17:27:11;43.45;;;23.45;;